Time;durP1;ratioP1;P1;durP2;ratioP2;P2;SDS_P1;SDS_P2;PMS_P1;PMS_P2;Temp;Humidity;BMP_temperature;BMP_pressure;BME280_temperature;BME280_humidity;BME280_pressure;Samples;Min_cycle;Max_cycle;Signal;HPM_P1;HPM_P2
2023/09/12 00:00:30;;;;;;;49.65;22.73;;;;;;;-144.57;100.00;62443.72;4861015;29;20037;-59
2023/09/12 00:02:56;;;;;;;53.90;25.27;;;;;;;-144.57;100.00;62443.72;4862139;29;20496;-58
2023/09/12 00:05:21;;;;;;;49.63;24.05;;;;;;;-144.57;100.00;62443.72;4861846;29;20571;-59
2023/09/12 00:07:47;;;;;;;48.50;22.20;;;;;;;-144.57;100.00;62443.72;4860655;29;20051;-57
2023/09/12 00:10:13;;;;;;;48.72;22.98;;;;;;;-144.57;100.00;62443.72;4861982;29;20060;-58
2023/09/12 00:12:39;;;;;;;54.95;23.80;;;;;;;-144.57;100.00;62443.72;4860507;29;20092;-55
2023/09/12 00:15:05;;;;;;;48.60;23.80;;;;;;;-144.57;100.00;62443.72;4861883;29;20129;-59
2023/09/12 00:17:30;;;;;;;45.80;23.48;;;;;;;-144.57;100.00;62443.72;4861563;29;20512;-56
2023/09/12 00:19:56;;;;;;;48.08;21.58;;;;;;;-144.57;100.00;62443.72;4861575;29;20059;-59
2023/09/12 00:22:21;;;;;;;43.03;21.83;;;;;;;-144.57;100.00;62443.72;4860399;29;20113;-57
2023/09/12 00:24:47;;;;;;;39.67;20.50;;;;;;;-144.57;100.00;62443.72;4861814;29;20052;-60
2023/09/12 00:27:13;;;;;;;43.67;22.52;;;;;;;-144.57;100.00;62443.72;4861996;29;20076;-58
2023/09/12 00:29:38;;;;;;;52.28;22.58;;;;;;;-144.57;100.00;62443.72;4861773;29;20115;-59
2023/09/12 00:32:04;;;;;;;46.80;22.65;;;;;;;-144.57;100.00;62443.72;4861868;29;20049;-59
2023/09/12 00:34:30;;;;;;;46.25;22.63;;;;;;;-144.57;100.00;62443.72;4861911;29;20128;-57
2023/09/12 00:36:56;;;;;;;46.13;22.27;;;;;;;-144.57;100.00;62443.72;4861523;29;20060;-56
2023/09/12 00:39:21;;;;;;;44.10;22.05;;;;;;;-144.57;100.00;62443.72;4860224;29;20069;-59
2023/09/12 00:41:47;;;;;;;47.42;23.65;;;;;;;-144.57;100.00;62443.72;4860243;29;20057;-56
2023/09/12 00:44:12;;;;;;;52.08;23.83;;;;;;;-144.57;100.00;62443.72;4860112;29;20475;-58
2023/09/12 00:46:40;;;;;;;51.22;23.17;;;;;;;-144.57;100.00;62443.72;4860265;29;20400;-56
2023/09/12 00:49:07;;;;;;;51.95;25.10;;;;;;;-144.57;100.00;62443.72;4860055;29;20144;-57
2023/09/12 00:51:33;;;;;;;55.15;24.98;;;;;;;-144.57;100.00;62443.72;4861389;29;20056;-57
2023/09/12 00:53:59;;;;;;;53.17;25.33;;;;;;;-144.57;100.00;62443.72;4860152;29;20049;-56
2023/09/12 00:56:25;;;;;;;60.00;25.77;;;;;;;-144.57;100.00;62443.72;4861574;29;20045;-60
2023/09/12 00:58:51;;;;;;;60.00;25.45;;;;;;;-144.57;100.00;62443.72;4860190;29;20049;-59
2023/09/12 01:01:19;;;;;;;56.58;25.83;;;;;;;-144.57;100.00;62443.72;4861207;29;20046;-57
2023/09/12 01:03:44;;;;;;;50.47;23.02;;;;;;;-144.57;100.00;62443.72;4844931;29;20041;-56
2023/09/12 01:06:10;;;;;;;47.95;24.65;;;;;;;-144.57;100.00;62443.72;4859953;29;20105;-59
2023/09/12 01:08:39;;;;;;;52.42;23.60;;;;;;;-144.57;100.00;62443.72;4861440;29;20454;-57
2023/09/12 01:11:05;;;;;;;49.22;23.75;;;;;;;-144.57;100.00;62443.72;4861485;29;20060;-58
2023/09/12 01:13:31;;;;;;;51.97;23.85;;;;;;;-144.57;100.00;62443.72;4846206;29;20397;-57
2023/09/12 01:15:57;;;;;;;51.90;24.63;;;;;;;-144.57;100.00;62443.72;4862555;29;20516;-58
2023/09/12 01:18:23;;;;;;;50.80;24.58;;;;;;;-144.57;100.00;62443.72;4862634;29;20080;-58
2023/09/12 01:21:16;;;;;;;50.20;22.90;;;;;;;-144.57;100.00;62443.72;4830202;29;20117;-59
2023/09/12 01:23:54;;;;;;;48.35;24.15;;;;;;;-144.57;100.00;62443.72;4860176;29;20050;-59
2023/09/12 01:26:34;;;;;;;45.28;22.55;;;;;;;-144.57;100.00;62443.72;4862747;29;20148;-58
2023/09/12 01:29:00;;;;;;;47.88;24.27;;;;;;;-144.57;100.00;62443.72;4864211;29;20059;-57
2023/09/12 01:31:27;;;;;;;54.85;24.27;;;;;;;-144.57;100.00;62443.72;4850679;29;20053;-58
2023/09/12 01:33:57;;;;;;;48.30;23.33;;;;;;;-144.57;100.00;62443.72;4865057;29;20073;-57
2023/09/12 01:36:23;;;;;;;47.85;22.75;;;;;;;-144.57;100.00;62443.72;4864787;29;20045;-59
2023/09/12 01:38:48;;;;;;;41.47;22.23;;;;;;;-144.57;100.00;62443.72;4863237;29;20052;-58
2023/09/12 01:41:14;;;;;;;50.13;22.52;;;;;;;-144.57;100.00;62443.72;4860245;29;20076;-57
2023/09/12 01:43:41;;;;;;;48.53;22.60;;;;;;;-144.57;100.00;62443.72;4861321;29;20551;-57
2023/09/12 01:46:07;;;;;;;49.60;23.63;;;;;;;-144.57;100.00;62443.72;4859825;29;20042;-59
2023/09/12 01:48:34;;;;;;;49.25;23.38;;;;;;;-144.57;100.00;62443.72;4859500;29;20473;-58
2023/09/12 01:51:04;;;;;;;53.83;25.52;;;;;;;-144.57;100.00;62443.72;4859930;29;20065;-58
2023/09/12 01:53:31;;;;;;;49.80;23.27;;;;;;;-144.57;100.00;62443.72;4858777;29;20160;-60
2023/09/12 01:55:57;;;;;;;46.67;24.27;;;;;;;-144.57;100.00;62443.72;4843954;29;20320;-57
2023/09/12 01:58:25;;;;;;;48.75;23.27;;;;;;;-144.57;100.00;62443.72;4859066;29;20044;-58
2023/09/12 02:00:51;;;;;;;50.60;22.95;;;;;;;-144.57;100.00;62443.72;4860489;29;20137;-59
2023/09/12 02:03:16;;;;;;;46.03;23.50;;;;;;;-144.57;100.00;62443.72;4860468;29;20132;-58
2023/09/12 02:05:42;;;;;;;48.58;24.65;;;;;;;-144.57;100.00;62443.72;4860394;29;20141;-60
2023/09/12 02:08:08;;;;;;;51.60;24.02;;;;;;;-144.57;100.00;62443.72;4858969;29;20589;-58
2023/09/12 02:10:34;;;;;;;49.65;24.95;;;;;;;-144.57;100.00;62443.72;4842898;29;20089;-58
2023/09/12 02:13:00;;;;;;;49.70;24.10;;;;;;;-144.57;100.00;62443.72;4858870;29;20084;-58
2023/09/12 02:15:25;;;;;;;51.58;23.00;;;;;;;-144.57;100.00;62443.72;4858779;29;20482;-58
2023/09/12 02:17:52;;;;;;;55.53;24.58;;;;;;;-144.57;100.00;62443.72;4858674;29;20053;-58
2023/09/12 02:20:19;;;;;;;50.85;23.90;;;;;;;-144.57;100.00;62443.72;4859150;29;20053;-57
2023/09/12 02:22:45;;;;;;;57.75;25.42;;;;;;;-144.57;100.00;62443.72;4859920;29;20155;-59
2023/09/12 02:25:10;;;;;;;54.13;24.58;;;;;;;-144.57;100.00;62443.72;4858539;29;20053;-58
2023/09/12 02:27:36;;;;;;;55.95;25.48;;;;;;;-144.57;100.00;62443.72;4858470;29;20042;-58
2023/09/12 02:30:02;;;;;;;53.75;25.15;;;;;;;-144.57;100.00;62443.72;4858431;29;20046;-58
2023/09/12 02:32:29;;;;;;;59.67;25.15;;;;;;;-144.57;100.00;62443.72;4858506;29;20422;-59
2023/09/12 02:34:56;;;;;;;50.45;23.70;;;;;;;-144.57;100.00;62443.72;4859541;29;20050;-59
2023/09/12 02:37:23;;;;;;;54.70;24.50;;;;;;;-144.57;100.00;62443.72;4858350;29;20120;-59
2023/09/12 02:39:48;;;;;;;55.17;25.75;;;;;;;-144.57;100.00;62443.72;4858135;29;20422;-58
2023/09/12 02:42:14;;;;;;;52.35;23.95;;;;;;;-144.57;100.00;62443.72;4858121;29;20136;-59
2023/09/12 02:44:40;;;;;;;52.65;25.73;;;;;;;-144.57;100.00;62443.72;4858224;29;20579;-58
2023/09/12 02:47:06;;;;;;;57.90;25.38;;;;;;;-144.57;100.00;62443.72;4842082;29;20048;-58
2023/09/12 02:49:31;;;;;;;60.05;25.30;;;;;;;-144.57;100.00;62443.72;4859923;29;20142;-59
2023/09/12 02:51:57;;;;;;;60.67;27.13;;;;;;;-144.57;100.00;62443.72;4858023;29;20097;-58
2023/09/12 02:54:23;;;;;;;56.75;26.13;;;;;;;-144.57;100.00;62443.72;4858088;29;20046;-61
2023/09/12 02:56:48;;;;;;;57.92;25.80;;;;;;;-144.57;100.00;62443.72;4858123;29;20056;-56
2023/09/12 02:59:14;;;;;;;53.10;25.33;;;;;;;-144.57;100.00;62443.72;4857933;29;20064;-59
2023/09/12 03:01:39;;;;;;;52.33;24.63;;;;;;;-144.57;100.00;62443.72;4859206;29;20067;-58
2023/09/12 03:04:05;;;;;;;62.50;25.25;;;;;;;-144.57;100.00;62443.72;4857102;29;20474;-55
2023/09/12 03:06:31;;;;;;;56.33;25.08;;;;;;;-144.57;100.00;62443.72;4859230;29;20047;-59
2023/09/12 03:08:57;;;;;;;59.58;24.98;;;;;;;-144.57;100.00;62443.72;4859510;29;20049;-57
2023/09/12 03:11:23;;;;;;;55.00;24.50;;;;;;;-144.57;100.00;62443.72;4857921;29;20578;-59
2023/09/12 03:13:48;;;;;;;51.55;25.30;;;;;;;-144.57;100.00;62443.72;4858859;29;20054;-58
2023/09/12 03:16:14;;;;;;;53.35;23.08;;;;;;;-144.57;100.00;62443.72;4857917;29;20085;-58
2023/09/12 03:18:40;;;;;;;51.17;24.10;;;;;;;-144.57;100.00;62443.72;4842605;29;20046;-58
2023/09/12 03:21:06;;;;;;;53.30;24.35;;;;;;;-144.57;100.00;62443.72;4859347;29;20090;-59
2023/09/12 03:23:32;;;;;;;56.40;24.23;;;;;;;-144.57;100.00;62443.72;4857900;29;20484;-58
2023/09/12 03:26:05;;;;;;;53.65;24.25;;;;;;;-144.57;100.00;62443.72;4858921;29;20469;-57
2023/09/12 03:28:32;;;;;;;54.40;24.00;;;;;;;-144.57;100.00;62443.72;4857652;29;20056;-58
2023/09/12 03:31:11;;;;;;;46.85;23.90;;;;;;;-144.57;100.00;62443.72;4858793;29;20494;-58
2023/09/12 03:33:40;;;;;;;55.58;25.30;;;;;;;-144.57;100.00;62443.72;4859250;29;20079;-57
2023/09/12 03:36:06;;;;;;;53.65;25.95;;;;;;;-144.57;100.00;62443.72;4857687;29;20053;-57
2023/09/12 03:38:33;;;;;;;50.30;26.08;;;;;;;-144.57;100.00;62443.72;4858650;29;20046;-59
2023/09/12 03:40:59;;;;;;;55.63;26.67;;;;;;;-144.57;100.00;62443.72;4842221;29;20056;-59
2023/09/12 03:43:24;;;;;;;56.30;27.27;;;;;;;-144.57;100.00;62443.72;4857530;29;20054;-58
2023/09/12 03:45:51;;;;;;;45.65;24.08;;;;;;;-144.57;100.00;62443.72;4856889;29;20049;-59
2023/09/12 03:48:16;;;;;;;47.72;24.33;;;;;;;-144.57;100.00;62443.72;4857589;29;20102;-57
2023/09/12 03:50:42;;;;;;;52.17;25.05;;;;;;;-144.57;100.00;62443.72;4857978;29;20041;-58
2023/09/12 03:53:08;;;;;;;49.63;24.65;;;;;;;-144.57;100.00;62443.72;4857429;29;20085;-58
2023/09/12 03:55:34;;;;;;;49.05;24.08;;;;;;;-144.57;100.00;62443.72;4857879;29;20056;-59
2023/09/12 03:58:00;;;;;;;46.00;24.33;;;;;;;-144.57;100.00;62443.72;4857457;29;20124;-56
2023/09/12 04:00:26;;;;;;;50.28;24.33;;;;;;;-144.57;100.00;62443.72;4857270;29;20045;-57
2023/09/12 04:02:51;;;;;;;50.78;24.70;;;;;;;-144.57;100.00;62443.72;4858424;29;20082;-57
2023/09/12 04:05:17;;;;;;;51.75;27.45;;;;;;;-144.57;100.00;62443.72;4857810;29;20136;-58
2023/09/12 04:07:43;;;;;;;51.65;29.48;;;;;;;-144.57;100.00;62443.72;4858792;29;20137;-57
2023/09/12 04:10:09;;;;;;;59.40;30.30;;;;;;;-144.57;100.00;62443.72;4857323;29;20052;-58
2023/09/12 04:12:34;;;;;;;54.08;29.60;;;;;;;-144.57;100.00;62443.72;4856871;29;20060;-57
2023/09/12 04:15:00;;;;;;;49.67;30.00;;;;;;;-144.57;100.00;62443.72;4857873;29;20105;-60
2023/09/12 04:17:26;;;;;;;53.33;29.02;;;;;;;-144.57;100.00;62443.72;4860716;29;20049;-58
2023/09/12 04:19:51;;;;;;;61.97;32.05;;;;;;;-144.57;100.00;62443.72;4861662;29;20042;-58
2023/09/12 04:22:18;;;;;;;55.70;30.83;;;;;;;-144.57;100.00;62443.72;4860860;29;20053;-57
2023/09/12 04:24:43;;;;;;;56.08;28.58;;;;;;;-144.57;100.00;62443.72;4861796;29;20052;-60
2023/09/12 04:27:09;;;;;;;52.53;27.73;;;;;;;-144.57;100.00;62443.72;4860459;29;20107;-58
2023/09/12 04:29:35;;;;;;;58.78;29.30;;;;;;;-144.57;100.00;62443.72;4860472;29;20453;-59
2023/09/12 04:32:03;;;;;;;50.65;27.15;;;;;;;-144.57;100.00;62443.72;4860209;29;20092;-58
2023/09/12 04:34:30;;;;;;;58.95;26.48;;;;;;;-144.57;100.00;62443.72;4843936;29;20042;-58
2023/09/12 04:36:56;;;;;;;48.67;25.25;;;;;;;-144.57;100.00;62443.72;4860242;29;20189;-58
2023/09/12 04:39:22;;;;;;;45.30;24.52;;;;;;;-144.57;100.00;62443.72;4860137;29;20069;-57
2023/09/12 04:41:48;;;;;;;53.72;26.02;;;;;;;-144.57;100.00;62443.72;4860001;29;20132;-59
2023/09/12 04:44:14;;;;;;;59.28;26.35;;;;;;;-144.57;100.00;62443.72;4860046;29;20045;-58
2023/09/12 04:46:40;;;;;;;53.72;25.00;;;;;;;-144.57;100.00;62443.72;4858935;29;20400;-59
2023/09/12 04:49:05;;;;;;;49.85;24.77;;;;;;;-144.57;100.00;62443.72;4844363;29;20042;-59
2023/09/12 04:51:31;;;;;;;47.10;24.15;;;;;;;-144.57;100.00;62443.72;4864591;29;20055;-59
2023/09/12 04:53:57;;;;;;;39.78;22.95;;;;;;;-144.57;100.00;62443.72;4876633;29;20059;-57
2023/09/12 04:56:26;;;;;;;45.38;22.77;;;;;;;-144.57;100.00;62443.72;4878376;29;20048;-60
2023/09/12 04:58:52;;;;;;;47.25;23.25;;;;;;;-144.57;100.00;62443.72;4879524;29;20072;-59
2023/09/12 05:01:17;;;;;;;42.65;22.83;;;;;;;-144.57;100.00;62443.72;4879874;29;20515;-57
2023/09/12 05:03:47;;;;;;;43.58;22.98;;;;;;;-144.57;100.00;62443.72;4878115;29;20509;-58
2023/09/12 05:06:13;;;;;;;43.38;22.95;;;;;;;-144.57;100.00;62443.72;4878307;29;20048;-57
2023/09/12 05:08:39;;;;;;;48.10;24.35;;;;;;;-144.57;100.00;62443.72;4877715;29;20476;-59
2023/09/12 05:11:05;;;;;;;46.03;23.60;;;;;;;-144.57;100.00;62443.72;4877781;29;20041;-57
2023/09/12 05:13:31;;;;;;;48.78;23.42;;;;;;;-144.57;100.00;62443.72;4877859;29;20049;-58
2023/09/12 05:15:57;;;;;;;45.63;23.08;;;;;;;-144.57;100.00;62443.72;4879180;29;20092;-62
2023/09/12 05:18:23;;;;;;;51.90;23.75;;;;;;;-144.57;100.00;62443.72;4862434;29;20049;-57
2023/09/12 05:20:49;;;;;;;48.70;22.50;;;;;;;-144.57;100.00;62443.72;4877884;29;20053;-60
2023/09/12 05:23:15;;;;;;;42.63;22.17;;;;;;;-144.57;100.00;62443.72;4877634;29;20052;-59
2023/09/12 05:25:41;;;;;;;42.10;20.90;;;;;;;-144.57;100.00;62443.72;4877895;29;20045;-57
2023/09/12 05:28:07;;;;;;;41.63;22.17;;;;;;;-144.57;100.00;62443.72;4877983;29;20048;-57
2023/09/12 05:30:33;;;;;;;43.70;23.27;;;;;;;-144.57;100.00;62443.72;4878921;29;20049;-58
2023/09/12 05:32:58;;;;;;;48.00;23.25;;;;;;;-144.57;100.00;62443.72;4877379;29;20076;-57
2023/09/12 05:35:24;;;;;;;45.85;23.52;;;;;;;-144.57;100.00;62443.72;4878754;29;20538;-60
2023/09/12 05:37:51;;;;;;;45.58;22.40;;;;;;;-144.57;100.00;62443.72;4877194;29;20132;-58
2023/09/12 05:40:18;;;;;;;41.35;22.80;;;;;;;-144.57;100.00;62443.72;4865869;29;20128;-61
2023/09/12 05:42:45;;;;;;;41.58;22.63;;;;;;;-144.57;100.00;62443.72;4865342;29;20061;-56
2023/09/12 05:45:11;;;;;;;39.85;22.08;;;;;;;-144.57;100.00;62443.72;4877501;29;20468;-57
2023/09/12 05:47:37;;;;;;;45.88;23.00;;;;;;;-144.57;100.00;62443.72;4877181;29;20109;-59
2023/09/12 05:50:06;;;;;;;40.92;22.35;;;;;;;-144.57;100.00;62443.72;4877516;29;20109;-58
2023/09/12 05:52:33;;;;;;;40.80;22.08;;;;;;;-144.57;100.00;62443.72;4876827;29;20148;-56
2023/09/12 05:54:59;;;;;;;41.60;22.38;;;;;;;-144.57;100.00;62443.72;4878583;29;20115;-59
2023/09/12 05:57:25;;;;;;;41.22;22.38;;;;;;;-144.57;100.00;62443.72;4861494;29;20435;-58
2023/09/12 05:59:50;;;;;;;45.67;22.55;;;;;;;-144.57;100.00;62443.72;4877287;29;20069;-60
2023/09/12 06:02:17;;;;;;;47.55;23.77;;;;;;;-144.57;100.00;62443.72;4878393;29;20104;-57
2023/09/12 06:04:43;;;;;;;43.28;23.35;;;;;;;-144.57;100.00;62443.72;4878500;29;20044;-59
2023/09/12 06:07:09;;;;;;;40.08;21.73;;;;;;;-144.57;100.00;62443.72;4878426;29;20076;-57
2023/09/12 06:09:35;;;;;;;43.33;23.08;;;;;;;-144.57;100.00;62443.72;4877117;29;20068;-61
2023/09/12 06:12:02;;;;;;;42.90;23.80;;;;;;;-144.57;100.00;62443.72;4876649;29;20049;-58
2023/09/12 06:14:27;;;;;;;45.42;22.98;;;;;;;-144.57;100.00;62443.72;4878252;29;20511;-55
2023/09/12 06:16:53;;;;;;;39.63;23.02;;;;;;;-144.57;100.00;62443.72;4878280;29;20052;-55
2023/09/12 06:19:19;;;;;;;45.58;23.55;;;;;;;-144.57;100.00;62443.72;4841496;29;20057;-58
2023/09/12 06:21:45;;;;;;;40.35;22.98;;;;;;;-144.57;100.00;62443.72;4841315;29;20060;-58
2023/09/12 06:24:12;;;;;;;42.92;23.45;;;;;;;-144.57;100.00;62443.72;4875709;29;20044;-60
2023/09/12 06:26:38;;;;;;;46.33;24.52;;;;;;;-144.57;100.00;62443.72;4878279;29;20124;-56
2023/09/12 06:29:04;;;;;;;45.22;23.30;;;;;;;-144.57;100.00;62443.72;4877661;29;20096;-59
2023/09/12 06:31:30;;;;;;;41.88;23.63;;;;;;;-144.57;100.00;62443.72;4878101;29;20049;-60
2023/09/12 06:33:56;;;;;;;38.00;23.33;;;;;;;-144.57;100.00;62443.72;4878084;29;20312;-58
2023/09/12 06:36:25;;;;;;;39.95;22.48;;;;;;;-144.57;100.00;62443.72;4877945;29;20056;-56
2023/09/12 06:38:52;;;;;;;44.15;23.05;;;;;;;-144.57;100.00;62443.72;4877137;29;20055;-57
2023/09/12 06:41:20;;;;;;;43.22;23.63;;;;;;;-144.57;100.00;62443.72;4857822;29;20534;-58
2023/09/12 06:43:46;;;;;;;41.00;23.35;;;;;;;-144.57;100.00;62443.72;4873751;29;20060;-60
2023/09/12 06:46:12;;;;;;;41.20;21.33;;;;;;;-144.57;100.00;62443.72;4876540;29;20041;-59
2023/09/12 06:48:37;;;;;;;43.10;20.98;;;;;;;-144.57;100.00;62443.72;4877771;29;20053;-59
2023/09/12 06:51:05;;;;;;;39.05;22.25;;;;;;;-144.57;100.00;62443.72;4877444;29;20067;-59
2023/09/12 06:53:31;;;;;;;39.70;21.98;;;;;;;-144.57;100.00;62443.72;4877241;29;20447;-58
2023/09/12 06:55:58;;;;;;;40.40;21.98;;;;;;;-144.57;100.00;62443.72;4859645;29;20045;-59
2023/09/12 06:58:24;;;;;;;43.70;22.55;;;;;;;-144.57;100.00;62443.72;4871323;29;20139;-54
2023/09/12 07:00:50;;;;;;;46.88;23.42;;;;;;;-144.57;100.00;62443.72;4876345;29;20060;-59
2023/09/12 07:03:16;;;;;;;43.10;23.33;;;;;;;-144.57;100.00;62443.72;4874859;29;20056;-58
2023/09/12 07:05:43;;;;;;;45.03;23.30;;;;;;;-144.57;100.00;62443.72;4876759;29;20037;-58
2023/09/12 07:08:09;;;;;;;40.22;22.88;;;;;;;-144.57;100.00;62443.72;4877622;29;20055;-57
2023/09/12 07:10:36;;;;;;;43.88;23.50;;;;;;;-144.57;100.00;62443.72;4877217;29;20124;-59
2023/09/12 07:13:02;;;;;;;45.53;24.30;;;;;;;-144.57;100.00;62443.72;4876222;29;20143;-58
2023/09/12 07:15:28;;;;;;;42.70;22.77;;;;;;;-144.57;100.00;62443.72;4876224;29;20481;-60
2023/09/12 07:17:53;;;;;;;42.53;23.85;;;;;;;-144.57;100.00;62443.72;4877299;29;20072;-59
2023/09/12 07:20:20;;;;;;;37.72;22.50;;;;;;;-144.57;100.00;62443.72;4876219;29;20531;-57
2023/09/12 07:22:46;;;;;;;40.08;23.30;;;;;;;-144.57;100.00;62443.72;4877313;29;20145;-57
2023/09/12 07:25:13;;;;;;;41.63;23.10;;;;;;;-144.57;100.00;62443.72;4875976;29;20120;-57
2023/09/12 07:27:39;;;;;;;41.45;23.70;;;;;;;-144.57;100.00;62443.72;4876031;29;20049;-57
2023/09/12 07:30:06;;;;;;;44.03;25.40;;;;;;;-144.57;100.00;62443.72;4876784;29;20036;-59
2023/09/12 07:32:32;;;;;;;40.95;24.33;;;;;;;-144.57;100.00;62443.72;4877181;29;20439;-58
2023/09/12 07:34:58;;;;;;;43.28;23.95;;;;;;;-144.57;100.00;62443.72;4875675;29;20134;-59
2023/09/12 07:37:23;;;;;;;41.00;23.27;;;;;;;-144.57;100.00;62443.72;4876036;29;20555;-60
2023/09/12 07:39:49;;;;;;;41.70;23.20;;;;;;;-144.57;100.00;62443.72;4869285;29;20128;-60
2023/09/12 07:42:15;;;;;;;40.40;23.73;;;;;;;-144.57;100.00;62443.72;4858580;29;20061;-57
2023/09/12 07:44:40;;;;;;;41.25;24.60;;;;;;;-144.57;100.00;62443.72;4869497;29;20045;-60
2023/09/12 07:47:07;;;;;;;39.63;22.95;;;;;;;-144.57;100.00;62443.72;4875688;29;20530;-60
2023/09/12 07:49:32;;;;;;;37.88;22.65;;;;;;;-144.57;100.00;62443.72;4875634;29;20543;-58
2023/09/12 07:51:58;;;;;;;35.47;21.95;;;;;;;-144.57;100.00;62443.72;4880771;29;20057;-58
2023/09/12 07:54:23;;;;;;;37.22;22.15;;;;;;;-144.57;100.00;62443.72;4880395;29;20053;-60
2023/09/12 07:56:49;;;;;;;37.15;22.48;;;;;;;-144.57;100.00;62443.72;4880623;29;20045;-59
2023/09/12 07:59:15;;;;;;;40.92;22.40;;;;;;;-144.57;100.00;62443.72;4880304;29;20055;-60
2023/09/12 08:01:40;;;;;;;39.92;21.38;;;;;;;-144.57;100.00;62443.72;4881235;29;20044;-59
2023/09/12 08:04:06;;;;;;;41.85;21.95;;;;;;;-144.57;100.00;62443.72;4879544;29;20048;-57
2023/09/12 08:06:32;;;;;;;37.85;21.60;;;;;;;-144.57;100.00;62443.72;4880670;29;20149;-61
2023/09/12 08:08:58;;;;;;;37.05;22.02;;;;;;;-144.57;100.00;62443.72;4878881;29;20061;-57
2023/09/12 08:11:24;;;;;;;38.95;21.98;;;;;;;-144.57;100.00;62443.72;4878915;29;20057;-59
2023/09/12 08:13:49;;;;;;;37.63;22.10;;;;;;;-144.57;100.00;62443.72;4880542;29;20056;-58
2023/09/12 08:16:15;;;;;;;40.80;22.20;;;;;;;-144.57;100.00;62443.72;4880325;29;20041;-62
2023/09/12 08:18:41;;;;;;;37.25;22.25;;;;;;;-144.57;100.00;62443.72;4880418;29;20045;-58
2023/09/12 08:21:07;;;;;;;38.20;20.98;;;;;;;-144.57;100.00;62443.72;4880363;29;20472;-57
2023/09/12 08:23:33;;;;;;;40.97;21.63;;;;;;;-144.57;100.00;62443.72;4878855;29;20072;-57
2023/09/12 08:25:59;;;;;;;34.30;20.17;;;;;;;-144.57;100.00;62443.72;4879131;29;20072;-60
2023/09/12 08:28:25;;;;;;;31.60;19.35;;;;;;;-144.57;100.00;62443.72;4880163;29;20426;-59
2023/09/12 08:30:51;;;;;;;35.60;20.77;;;;;;;-144.57;100.00;62443.72;4880119;29;20051;-60
2023/09/12 08:33:16;;;;;;;38.13;20.27;;;;;;;-144.57;100.00;62443.72;4880160;29;20116;-61
2023/09/12 08:35:42;;;;;;;33.70;19.48;;;;;;;-144.57;100.00;62443.72;4880258;29;20037;-57
2023/09/12 08:38:08;;;;;;;36.90;19.13;;;;;;;-144.57;100.00;62443.72;4832625;29;20053;-57
2023/09/12 08:40:35;;;;;;;36.78;20.27;;;;;;;-144.57;100.00;62443.72;4866084;29;20045;-59
2023/09/12 08:43:03;;;;;;;28.02;18.55;;;;;;;-144.57;100.00;62443.72;4861321;29;20085;-59
2023/09/12 08:45:29;;;;;;;31.00;18.63;;;;;;;-144.57;100.00;62443.72;4879365;29;20053;-59
2023/09/12 08:47:57;;;;;;;37.33;20.00;;;;;;;-144.57;100.00;62443.72;4878706;29;20041;-58
2023/09/12 08:50:28;;;;;;;31.90;20.48;;;;;;;-144.57;100.00;62443.72;4878231;29;20044;-56
2023/09/12 08:52:54;;;;;;;31.58;18.27;;;;;;;-144.57;100.00;62443.72;4879817;29;20056;-57
2023/09/12 08:55:19;;;;;;;28.27;18.27;;;;;;;-144.57;100.00;62443.72;4879673;29;20056;-59
2023/09/12 08:57:48;;;;;;;33.03;18.33;;;;;;;-144.57;100.00;62443.72;4879924;29;20152;-58
2023/09/12 09:00:14;;;;;;;28.40;17.50;;;;;;;-144.57;100.00;62443.72;4862392;29;20068;-57
2023/09/12 09:02:41;;;;;;;27.90;17.27;;;;;;;-144.57;100.00;62443.72;4861673;29;20041;-58
2023/09/12 09:05:09;;;;;;;28.45;17.40;;;;;;;-144.57;100.00;62443.72;4878103;29;20140;-59
2023/09/12 09:07:42;;;;;;;27.08;17.50;;;;;;;-144.57;100.00;62443.72;4879379;29;20081;-59
2023/09/12 09:10:13;;;;;;;29.92;18.45;;;;;;;-144.57;100.00;62443.72;4877849;29;20049;-58
2023/09/12 09:12:40;;;;;;;28.20;15.65;;;;;;;-144.57;100.00;62443.72;4879145;29;20057;-58
2023/09/12 09:15:26;;;;;;;29.20;17.20;;;;;;;-144.57;100.00;62443.72;4877613;29;20136;-59
2023/09/12 09:17:53;;;;;;;31.13;17.55;;;;;;;-144.57;100.00;62443.72;4860990;29;20542;-60
2023/09/12 09:20:30;;;;;;;33.42;18.60;;;;;;;-144.57;100.00;62443.72;4878196;29;20048;-59
2023/09/12 09:23:09;;;;;;;31.15;18.02;;;;;;;-144.57;100.00;62443.72;4879471;29;20067;-60
2023/09/12 09:25:52;;;;;;;25.40;14.65;;;;;;;-144.57;100.00;62443.72;4841109;29;20402;-60
2023/09/12 09:28:19;;;;;;;23.00;14.05;;;;;;;-144.57;100.00;62443.72;4845006;29;20056;-58
2023/09/12 09:30:47;;;;;;;26.30;15.55;;;;;;;-144.57;100.00;62443.72;4879354;29;20067;-60
2023/09/12 09:33:13;;;;;;;28.70;16.77;;;;;;;-144.57;100.00;62443.72;4878987;29;20060;-60
2023/09/12 09:35:43;;;;;;;32.38;16.50;;;;;;;-144.57;100.00;62443.72;4879057;29;20037;-60
2023/09/12 09:38:09;;;;;;;27.50;16.33;;;;;;;-144.57;100.00;62443.72;4878318;29;20104;-60
2023/09/12 09:40:36;;;;;;;27.92;16.13;;;;;;;-144.57;100.00;62443.72;4864621;29;20061;-61
2023/09/12 09:43:02;;;;;;;32.75;18.33;;;;;;;-144.57;100.00;62443.72;4818242;29;1178678;-59
2023/09/12 09:45:29;;;;;;;31.38;16.95;;;;;;;-144.57;100.00;62443.72;4878499;29;20048;-59
2023/09/12 09:48:22;;;;;;;27.42;17.13;;;;;;;-144.57;100.00;62443.72;4877509;29;20085;-60
2023/09/12 09:50:48;;;;;;;27.25;16.95;;;;;;;-144.57;100.00;62443.72;4839266;29;20058;-54
2023/09/12 09:53:14;;;;;;;28.27;16.10;;;;;;;-144.57;100.00;62443.72;4796858;29;20400;-59
2023/09/12 09:55:39;;;;;;;29.65;17.60;;;;;;;-144.57;100.00;62443.72;4877254;29;20396;-59
2023/09/12 09:58:05;;;;;;;31.60;17.50;;;;;;;-144.57;100.00;62443.72;4878297;29;20093;-56
2023/09/12 10:00:34;;;;;;;32.45;17.85;;;;;;;-144.57;100.00;62443.72;4831335;29;20117;-60
2023/09/12 10:03:08;;;;;;;28.88;15.75;;;;;;;-144.57;100.00;62443.72;4877478;29;20049;-57
2023/09/12 10:05:37;;;;;;;28.23;16.05;;;;;;;-144.57;100.00;62443.72;4877010;29;20140;-59
2023/09/12 10:08:05;;;;;;;26.77;16.35;;;;;;;-144.57;100.00;62443.72;4877181;29;20105;-59
2023/09/12 10:10:33;;;;;;;30.17;16.23;;;;;;;-144.57;100.00;62443.72;4877306;29;20055;-58
2023/09/12 10:12:59;;;;;;;24.02;14.73;;;;;;;-144.57;100.00;62443.72;4878180;29;20063;-57
2023/09/12 10:15:30;;;;;;;25.52;15.73;;;;;;;-144.57;100.00;62443.72;4876989;29;20080;-57
2023/09/12 10:17:59;;;;;;;22.60;14.27;;;;;;;-144.57;100.00;62443.72;4877719;29;20049;-56
2023/09/12 10:20:33;;;;;;;27.10;16.48;;;;;;;-144.57;100.00;62443.72;4845884;29;20459;-59
2023/09/12 10:23:14;;;;;;;24.38;13.95;;;;;;;-144.57;100.00;62443.72;4876886;29;20121;-58
2023/09/12 10:25:41;;;;;;;22.95;13.90;;;;;;;-144.57;100.00;62443.72;4876933;29;20053;-57
2023/09/12 10:28:07;;;;;;;18.35;11.48;;;;;;;-144.57;100.00;62443.72;4877996;29;20045;-58
2023/09/12 10:30:34;;;;;;;20.67;12.05;;;;;;;-144.57;100.00;62443.72;4878003;29;20096;-59
2023/09/12 10:33:04;;;;;;;18.00;11.70;;;;;;;-144.57;100.00;62443.72;4878264;29;20052;-57
2023/09/12 10:35:32;;;;;;;21.73;11.60;;;;;;;-144.57;100.00;62443.72;4876666;29;20072;-57
2023/09/12 10:38:03;;;;;;;22.95;13.23;;;;;;;-144.57;100.00;62443.72;4878076;29;20053;-57
2023/09/12 10:40:32;;;;;;;21.00;12.00;;;;;;;-144.57;100.00;62443.72;4852019;29;20045;-59
2023/09/12 10:42:59;;;;;;;21.65;11.90;;;;;;;-144.57;100.00;62443.72;4873238;29;20060;-56
2023/09/12 10:45:26;;;;;;;14.82;9.57;;;;;;;-144.57;100.00;62443.72;4844203;29;20049;-60
2023/09/12 10:47:52;;;;;;;18.15;10.25;;;;;;;-144.57;100.00;62443.72;4876075;29;20407;-59
2023/09/12 10:50:19;;;;;;;15.50;9.50;;;;;;;-144.57;100.00;62443.72;4877718;29;20063;-60
2023/09/12 10:53:33;;;;;;;18.52;10.65;;;;;;;-144.57;100.00;62443.72;4877833;29;20511;-57